Time;durP1;ratioP1;P1;durP2;ratioP2;P2;SDS_P1;SDS_P2;PMS_P1;PMS_P2;Temp;Humidity;BMP_temperature;BMP_pressure;BME280_temperature;BME280_humidity;BME280_pressure;Samples;Min_cycle;Max_cycle;Signal;HPM_P1;HPM_P2
2021/12/12 05:00:52;;;;;;;3.80;3.50;;;3.70;99.90;;;;;;5799888;23;20478;-70
2021/12/12 05:03:26;;;;;;;5.40;3.63;;;3.60;99.90;;;;;;4975955;28;20443;-71
2021/12/12 05:05:56;;;;;;;3.57;3.37;;;3.70;99.90;;;;;;4975721;28;20439;-70
2021/12/12 05:08:32;;;;;;;5.13;4.13;;;3.70;99.90;;;;;;4975803;28;20462;-70
2021/12/12 05:11:06;;;;;;;4.33;3.50;;;3.70;99.90;;;;;;4975603;28;20474;-71
2021/12/12 05:13:37;;;;;;;3.57;3.27;;;3.70;99.90;;;;;;4975868;28;20458;-70
2021/12/12 05:16:13;;;;;;;6.30;3.87;;;3.70;99.90;;;;;;4975202;28;20459;-70
2021/12/12 05:18:47;;;;;;;3.70;3.20;;;3.80;99.90;;;;;;4975167;28;20479;-70
2021/12/12 05:21:17;;;;;;;8.77;4.40;;;3.80;99.90;;;;;;4975168;28;20562;-71
2021/12/12 05:23:47;;;;;;;3.90;3.60;;;3.80;99.90;;;;;;4975471;28;20470;-70
2021/12/12 05:26:16;;;;;;;8.93;4.80;;;3.80;99.90;;;;;;4974876;28;20836;-70
2021/12/12 05:28:48;;;;;;;11.00;4.43;;;3.80;99.90;;;;;;4975482;28;20458;-70
2021/12/12 05:31:19;;;;;;;4.50;4.10;;;3.70;99.90;;;;;;4975310;28;20479;-70
2021/12/12 05:33:49;;;;;;;5.03;4.63;;;3.70;99.90;;;;;;4975196;28;20444;-70
2021/12/12 05:36:16;;;;;;;8.90;4.70;;;3.60;99.90;;;;;;4975262;28;20450;-69
2021/12/12 05:38:43;;;;;;;5.50;4.70;;;3.60;99.90;;;;;;4975195;28;20451;-69
2021/12/12 05:41:11;;;;;;;7.40;5.50;;;3.50;99.90;;;;;;4975126;28;20471;-69
2021/12/12 05:43:38;;;;;;;8.37;5.00;;;3.50;99.90;;;;;;4976641;28;20455;-69
2021/12/12 05:46:06;;;;;;;5.70;5.20;;;3.40;99.90;;;;;;4975336;28;20455;-69
2021/12/12 05:48:34;;;;;;;5.50;4.57;;;3.40;99.90;;;;;;4975007;28;20447;-69
2021/12/12 05:51:02;;;;;;;6.77;4.43;;;3.40;99.90;;;;;;4975943;28;20497;-69
2021/12/12 05:53:29;;;;;;;6.03;4.73;;;3.40;99.90;;;;;;4975857;28;20483;-69
2021/12/12 05:55:57;;;;;;;7.00;5.63;;;3.30;99.90;;;;;;4974952;28;20478;-69
2021/12/12 05:58:24;;;;;;;8.50;5.33;;;3.30;99.90;;;;;;4975779;28;20463;-71
2021/12/12 06:00:54;;;;;;;5.73;5.00;;;3.20;99.90;;;;;;4975367;28;20486;-69
2021/12/12 06:03:24;;;;;;;6.23;5.00;;;3.20;99.90;;;;;;4975610;28;20439;-70
2021/12/12 06:05:54;;;;;;;5.40;4.90;;;3.10;99.90;;;;;;4975600;28;20440;-70
2021/12/12 06:08:23;;;;;;;5.47;4.97;;;3.00;99.90;;;;;;4975334;28;20463;-70
2021/12/12 06:10:51;;;;;;;5.00;4.50;;;3.00;99.90;;;;;;4978422;28;20475;-71
2021/12/12 06:13:19;;;;;;;4.97;4.57;;;3.00;99.90;;;;;;4979550;28;20455;-70
2021/12/12 06:15:50;;;;;;;5.97;5.47;;;3.00;99.90;;;;;;4979983;28;20475;-70
2021/12/12 06:18:18;;;;;;;7.57;4.60;;;3.00;99.90;;;;;;4979726;28;20519;-70
2021/12/12 06:20:46;;;;;;;5.30;4.80;;;3.00;99.90;;;;;;4979837;28;20475;-71
2021/12/12 06:23:16;;;;;;;5.60;4.90;;;3.00;99.90;;;;;;4980033;28;20816;-71
2021/12/12 06:25:45;;;;;;;5.70;4.90;;;3.00;99.90;;;;;;4980879;28;20451;-70
2021/12/12 06:28:15;;;;;;;5.80;4.93;;;3.00;99.90;;;;;;4980132;28;20443;-70
2021/12/12 06:30:42;;;;;;;5.30;4.80;;;2.90;99.90;;;;;;4979975;28;20475;-71
2021/12/12 06:33:11;;;;;;;4.80;4.20;;;2.90;99.90;;;;;;4979742;28;20461;-70
2021/12/12 06:35:38;;;;;;;5.53;4.97;;;2.90;99.90;;;;;;4979521;28;20489;-70
2021/12/12 06:38:07;;;;;;;6.40;4.87;;;2.90;99.90;;;;;;4979672;28;20463;-71
2021/12/12 06:40:36;;;;;;;5.40;4.90;;;2.90;99.90;;;;;;4980841;28;20525;-70
2021/12/12 06:43:07;;;;;;;5.30;4.80;;;2.80;99.90;;;;;;4981203;28;20485;-70
2021/12/12 06:45:34;;;;;;;6.37;4.80;;;2.90;99.90;;;;;;4982883;28;20435;-71
2021/12/12 06:48:04;;;;;;;5.57;5.07;;;2.90;99.90;;;;;;4984465;28;20454;-70
2021/12/12 06:50:31;;;;;;;7.67;5.40;;;2.90;99.90;;;;;;4984079;28;20478;-72
2021/12/12 06:53:00;;;;;;;6.43;5.50;;;2.90;99.90;;;;;;4983757;28;20462;-70
2021/12/12 06:55:28;;;;;;;5.70;5.13;;;2.90;99.90;;;;;;4982954;28;20479;-70
2021/12/12 06:57:56;;;;;;;5.67;5.13;;;2.90;99.90;;;;;;4981043;28;20460;-70
2021/12/12 07:00:26;;;;;;;6.30;5.20;;;2.80;99.90;;;;;;4979072;28;20835;-70
2021/12/12 07:02:53;;;;;;;5.57;5.00;;;2.90;99.90;;;;;;4978778;28;20782;-69
2021/12/12 07:05:24;;;;;;;5.07;4.67;;;2.80;99.90;;;;;;4979502;28;20455;-69
2021/12/12 07:07:53;;;;;;;5.93;5.20;;;2.90;99.90;;;;;;4979584;28;20439;-70
2021/12/12 07:10:22;;;;;;;6.13;4.43;;;2.90;99.90;;;;;;4978698;28;20455;-69
2021/12/12 07:12:55;;;;;;;5.27;4.77;;;2.80;99.90;;;;;;4978247;28;20992;-70
2021/12/12 07:15:26;;;;;;;5.30;4.80;;;2.80;99.90;;;;;;4978377;28;20463;-69
2021/12/12 07:17:54;;;;;;;5.27;4.50;;;2.80;99.90;;;;;;4979075;28;20439;-69
2021/12/12 07:20:21;;;;;;;7.20;5.20;;;2.80;99.90;;;;;;4978862;28;20459;-69
2021/12/12 07:22:48;;;;;;;5.47;5.00;;;2.80;99.90;;;;;;4977898;28;20458;-69
2021/12/12 07:25:16;;;;;;;8.23;5.60;;;2.90;99.90;;;;;;4978831;28;20455;-69
2021/12/12 07:27:43;;;;;;;7.63;4.80;;;2.90;99.90;;;;;;4978354;28;20478;-69
2021/12/12 07:30:11;;;;;;;6.33;5.73;;;2.90;99.90;;;;;;4978481;28;20801;-68
2021/12/12 07:32:40;;;;;;;7.60;5.30;;;2.90;99.90;;;;;;4978722;28;20447;-68
2021/12/12 07:35:08;;;;;;;6.00;5.07;;;2.90;99.90;;;;;;4978634;28;20472;-69
2021/12/12 07:37:36;;;;;;;5.70;5.20;;;3.00;99.90;;;;;;4978177;28;20459;-68
2021/12/12 07:40:04;;;;;;;7.63;5.40;;;3.10;99.90;;;;;;4977769;28;20811;-67
2021/12/12 07:42:31;;;;;;;5.40;5.00;;;3.30;99.90;;;;;;4977502;28;20478;-68
2021/12/12 07:44:58;;;;;;;5.03;4.63;;;4.10;99.90;;;;;;4977720;28;20432;-68
2021/12/12 07:47:25;;;;;;;4.17;3.87;;;5.20;99.90;;;;;;4978788;28;20459;-67
2021/12/12 07:49:53;;;;;;;4.90;4.23;;;6.20;99.90;;;;;;4977692;28;20553;-67
2021/12/12 07:52:24;;;;;;;4.60;4.10;;;7.10;99.90;;;;;;4977528;28;20482;-67
2021/12/12 07:54:52;;;;;;;4.33;4.00;;;8.10;99.90;;;;;;4977190;28;20554;-67
2021/12/12 07:57:20;;;;;;;4.23;3.93;;;9.00;99.90;;;;;;4977475;28;20444;-67
2021/12/12 07:59:48;;;;;;;4.20;3.90;;;9.50;99.90;;;;;;4977141;28;20471;-68
2021/12/12 08:02:16;;;;;;;4.40;4.00;;;9.90;99.90;;;;;;4976970;28;20489;-68
2021/12/12 08:04:45;;;;;;;4.53;4.13;;;10.50;99.90;;;;;;4977236;28;20843;-68
2021/12/12 08:07:16;;;;;;;4.10;3.80;;;10.60;99.90;;;;;;4976715;28;20466;-68
2021/12/12 08:09:45;;;;;;;4.60;3.67;;;11.20;99.90;;;;;;4976696;28;20440;-68
2021/12/12 08:12:15;;;;;;;5.23;3.70;;;11.70;99.90;;;;;;4976447;28;20487;-68
2021/12/12 08:14:42;;;;;;;4.40;4.10;;;12.50;99.60;;;;;;4976315;28;20879;-67
2021/12/12 08:17:11;;;;;;;3.53;3.23;;;12.90;96.60;;;;;;4976598;28;20482;-68
2021/12/12 08:19:38;;;;;;;3.87;3.57;;;13.10;95.60;;;;;;4976937;28;20466;-67
2021/12/12 08:22:08;;;;;;;3.23;3.03;;;13.10;94.30;;;;;;4977489;28;20523;-68
2021/12/12 08:24:38;;;;;;;3.27;3.07;;;13.70;93.70;;;;;;4976533;28;20454;-69
2021/12/12 08:27:06;;;;;;;3.73;3.37;;;13.90;91.60;;;;;;4976216;28;20483;-68
2021/12/12 08:29:34;;;;;;;4.33;4.03;;;13.00;92.50;;;;;;4976006;28;20455;-71
2021/12/12 08:32:05;;;;;;;3.77;3.57;;;12.10;93.30;;;;;;4976326;28;20483;-68
2021/12/12 08:34:31;;;;;;;3.73;3.47;;;11.00;95.30;;;;;;4976847;28;20444;-69
2021/12/12 08:36:59;;;;;;;3.33;3.03;;;10.10;97.00;;;;;;4976324;28;20529;-68
2021/12/12 08:39:27;;;;;;;6.67;3.93;;;9.40;99.70;;;;;;4977524;28;20962;-68
2021/12/12 08:41:58;;;;;;;4.10;3.80;;;8.80;99.90;;;;;;4977803;28;20482;-69
2021/12/12 08:44:27;;;;;;;3.57;3.27;;;8.30;99.90;;;;;;4977824;28;20446;-68
2021/12/12 08:46:57;;;;;;;4.50;4.10;;;7.50;99.90;;;;;;4977455;28;20818;-68
2021/12/12 08:49:28;;;;;;;4.17;3.87;;;7.10;99.90;;;;;;4977595;28;20780;-68
2021/12/12 08:51:58;;;;;;;4.63;4.23;;;6.90;99.90;;;;;;4977044;28;20842;-68
2021/12/12 08:54:28;;;;;;;4.20;3.90;;;6.70;99.90;;;;;;4976789;28;20459;-68
2021/12/12 08:57:03;;;;;;;3.70;3.50;;;6.70;99.90;;;;;;4977068;28;20483;-68
2021/12/12 08:59:31;;;;;;;3.53;3.23;;;6.50;99.90;;;;;;4976730;28;20443;-68
2021/12/12 09:02:02;;;;;;;4.10;3.80;;;6.50;99.90;;;;;;4976212;28;20493;-69
2021/12/12 09:04:30;;;;;;;3.40;3.20;;;6.40;99.90;;;;;;4976735;28;20776;-68
2021/12/12 09:07:01;;;;;;;2.93;2.70;;;6.30;99.90;;;;;;4976430;28;20451;-68
2021/12/12 09:09:33;;;;;;;3.87;3.57;;;6.10;99.90;;;;;;4976079;28;20442;-68
2021/12/12 09:12:06;;;;;;;3.67;3.33;;;6.20;99.90;;;;;;4976465;28;20478;-68
2021/12/12 09:14:38;;;;;;;3.27;2.90;;;6.30;99.90;;;;;;4977021;28;20450;-68
2021/12/12 09:17:09;;;;;;;3.90;3.60;;;6.40;99.90;;;;;;4976394;28;20471;-69
2021/12/12 09:19:40;;;;;;;3.20;2.90;;;6.40;99.90;;;;;;4977023;28;20450;-69
2021/12/12 09:22:10;;;;;;;3.27;3.07;;;6.40;99.90;;;;;;4976418;28;20993;-69
2021/12/12 09:24:45;;;;;;;2.93;2.73;;;6.30;99.90;;;;;;4976384;28;20444;-68
2021/12/12 09:27:18;;;;;;;3.20;3.00;;;6.20;99.90;;;;;;4976928;28;20439;-70
2021/12/12 09:29:53;;;;;;;3.20;3.00;;;6.20;99.90;;;;;;4976832;28;20443;-68
2021/12/12 09:32:27;;;;;;;3.37;3.17;;;6.20;99.90;;;;;;4976836;28;21000;-69
2021/12/12 09:35:00;;;;;;;5.47;4.97;;;6.20;99.90;;;;;;4977225;28;20899;-68
2021/12/12 09:37:33;;;;;;;2.60;2.50;;;6.20;99.90;;;;;;4977975;28;20522;-68
2021/12/12 09:40:07;;;;;;;2.57;2.47;;;6.30;99.90;;;;;;4980158;28;20532;-68
2021/12/12 09:42:54;;;;;;;4.27;3.13;;;6.30;99.90;;;;;;4979774;28;20485;-68
2021/12/12 09:45:48;;;;;;;2.90;2.70;;;6.40;99.90;;;;;;4979548;28;20443;-68
2021/12/12 09:51:39;;;;;;;2.90;2.80;;;6.90;99.90;;;;;;4976833;28;20513;-67
2021/12/12 09:54:19;;;;;;;3.60;3.30;;;7.20;99.90;;;;;;4977043;28;20941;-69
2021/12/12 09:56:50;;;;;;;2.57;2.47;;;7.10;99.90;;;;;;4976508;28;20467;-68
2021/12/12 09:59:31;;;;;;;2.63;2.43;;;7.40;99.90;;;;;;4976143;28;20613;-69
2021/12/12 10:02:06;;;;;;;2.20;2.03;;;7.40;99.90;;;;;;4976095;28;20494;-68
2021/12/12 10:04:47;;;;;;;2.03;1.83;;;7.30;99.90;;;;;;4976474;28;20546;-68
2021/12/12 10:07:26;;;;;;;3.40;2.40;;;7.00;99.90;;;;;;4975786;28;20439;-68
2021/12/12 10:09:56;;;;;;;2.23;2.13;;;6.80;99.90;;;;;;4976377;28;20846;-69
2021/12/12 10:12:26;;;;;;;1.80;1.70;;;6.70;99.90;;;;;;4975519;28;20486;-69
2021/12/12 10:15:04;;;;;;;3.00;2.80;;;6.60;99.90;;;;;;4977072;28;20455;-68
2021/12/12 10:17:39;;;;;;;1.87;1.77;;;6.60;99.90;;;;;;4975625;28;20494;-69
2021/12/12 10:20:12;;;;;;;2.40;2.20;;;6.60;99.90;;;;;;4974877;28;20451;-68
2021/12/12 10:22:54;;;;;;;1.90;1.67;;;6.50;99.90;;;;;;4975425;28;20539;-68
2021/12/12 10:25:27;;;;;;;2.63;2.50;;;6.50;99.90;;;;;;4975484;28;20443;-68
2021/12/12 10:27:59;;;;;;;2.30;2.20;;;6.50;99.90;;;;;;4975033;28;20848;-68
2021/12/12 10:30:31;;;;;;;2.57;2.37;;;6.60;99.90;;;;;;4974886;28;20456;-68
2021/12/12 10:33:05;;;;;;;2.57;2.37;;;6.70;99.90;;;;;;4975151;28;20447;-68
2021/12/12 10:35:37;;;;;;;2.13;2.03;;;6.70;99.90;;;;;;4974634;28;20450;-68
2021/12/12 10:38:07;;;;;;;2.27;2.17;;;6.70;99.90;;;;;;4974890;28;20443;-68
2021/12/12 10:40:38;;;;;;;6.93;3.00;;;6.60;99.90;;;;;;4974826;28;20483;-68
2021/12/12 10:43:12;;;;;;;2.90;2.70;;;6.70;99.90;;;;;;4974308;28;20443;-68
2021/12/12 10:45:44;;;;;;;4.37;4.07;;;6.70;99.90;;;;;;4974214;28;20452;-69
2021/12/12 10:48:17;;;;;;;2.70;2.50;;;6.70;99.90;;;;;;4974891;28;20852;-70
2021/12/12 10:50:56;;;;;;;3.93;2.60;;;6.70;99.90;;;;;;4974265;28;20474;-69
2021/12/12 10:53:30;;;;;;;3.30;3.00;;;7.00;99.90;;;;;;4974980;28;20443;-69
2021/12/12 10:55:59;;;;;;;2.70;2.50;;;7.20;99.90;;;;;;4975130;28;20961;-69
2021/12/12 10:58:33;;;;;;;2.20;2.10;;;7.30;99.90;;;;;;4977797;28;20439;-69
2021/12/12 11:01:07;;;;;;;2.60;2.40;;;7.20;99.90;;;;;;4977495;28;20966;-68
2021/12/12 11:03:37;;;;;;;2.60;2.40;;;7.30;99.90;;;;;;4978348;28;20463;-68
2021/12/12 11:06:09;;;;;;;1.93;1.83;;;7.30;99.90;;;;;;4977212;28;20539;-70
2021/12/12 11:08:40;;;;;;;2.63;2.43;;;7.30;99.90;;;;;;4977674;28;20439;-69
2021/12/12 11:11:12;;;;;;;3.40;2.60;;;7.40;99.90;;;;;;4978605;28;20497;-69
2021/12/12 11:13:44;;;;;;;2.70;2.50;;;7.40;99.90;;;;;;4986421;28;20444;-69
2021/12/12 11:16:18;;;;;;;2.40;2.30;;;7.20;99.90;;;;;;4986673;28;20470;-69
2021/12/12 11:18:49;;;;;;;5.83;2.87;;;7.10;99.90;;;;;;4982731;28;20440;-68
2021/12/12 11:21:21;;;;;;;2.73;2.53;;;7.00;99.90;;;;;;4976990;28;20479;-69
2021/12/12 11:23:51;;;;;;;2.40;2.20;;;7.00;99.90;;;;;;4977493;28;20439;-69
2021/12/12 11:26:22;;;;;;;2.97;2.60;;;7.00;99.90;;;;;;4977082;28;21031;-70
2021/12/12 11:28:54;;;;;;;3.27;3.07;;;7.10;99.90;;;;;;4977596;28;20439;-69
2021/12/12 11:31:35;;;;;;;3.93;2.67;;;7.10;99.90;;;;;;4977377;28;20478;-70
2021/12/12 11:34:04;;;;;;;2.20;2.10;;;7.10;99.90;;;;;;4978039;28;20800;-69
2021/12/12 11:36:35;;;;;;;3.87;2.40;;;7.30;99.90;;;;;;4977191;28;20493;-69
2021/12/12 11:39:14;;;;;;;4.67;2.10;;;7.40;99.90;;;;;;4977127;28;20506;-67
2021/12/12 11:41:54;;;;;;;2.80;2.33;;;7.60;99.90;;;;;;4977311;28;20474;-69
2021/12/12 11:44:26;;;;;;;2.40;1.70;;;7.60;99.90;;;;;;4977213;28;20439;-69
2021/12/12 11:47:01;;;;;;;3.53;2.23;;;7.60;99.90;;;;;;4976851;28;20806;-69
2021/12/12 11:49:38;;;;;;;2.33;2.23;;;7.60;99.90;;;;;;4977091;28;20439;-69
2021/12/12 11:52:10;;;;;;;6.03;2.00;;;7.50;99.90;;;;;;4976863;28;20482;-69
2021/12/12 11:54:47;;;;;;;2.77;2.30;;;7.50;99.90;;;;;;4977205;28;20443;-69
2021/12/12 11:57:20;;;;;;;2.80;2.20;;;7.50;99.90;;;;;;4977726;28;20470;-69
2021/12/12 12:00:01;;;;;;;2.63;2.43;;;7.50;99.90;;;;;;4976817;28;20443;-69
2021/12/12 12:02:35;;;;;;;3.13;2.10;;;7.60;99.90;;;;;;4976679;28;20485;-69
2021/12/12 12:05:15;;;;;;;2.30;2.20;;;7.70;99.90;;;;;;4976640;28;20446;-69
2021/12/12 12:07:52;;;;;;;2.90;2.10;;;7.80;99.90;;;;;;4975862;28;20942;-69
2021/12/12 12:10:30;;;;;;;1.80;1.70;;;7.80;99.90;;;;;;4976666;28;20439;-69
2021/12/12 12:13:08;;;;;;;2.93;2.63;;;7.90;99.90;;;;;;4977031;28;20447;-69
2021/12/12 12:15:47;;;;;;;3.30;2.17;;;8.00;99.90;;;;;;4976767;28;20443;-68
2021/12/12 12:18:27;;;;;;;2.30;1.93;;;8.00;99.90;;;;;;4977036;28;20467;-68
2021/12/12 12:21:01;;;;;;;2.47;1.90;;;8.00;99.90;;;;;;4976863;28;20485;-69
2021/12/12 12:23:54;;;;;;;2.50;1.80;;;7.90;99.90;;;;;;4976798;28;20490;-69
2021/12/12 12:29:28;;;;;;;2.70;2.50;;;7.80;99.90;;;;;;4977211;28;20423;-70
2021/12/12 12:32:34;;;;;;;5.83;2.17;;;7.80;99.90;;;;;;4976609;28;20475;-69
2021/12/12 12:36:14;;;;;;;2.70;2.10;;;7.80;99.90;;;;;;4980107;28;20455;-69
2021/12/12 12:39:33;;;;;;;2.00;1.90;;;7.80;99.90;;;;;;4947010;28;20457;-69
2021/12/12 12:42:58;;;;;;;2.43;2.20;;;7.90;99.90;;;;;;4969867;28;20474;-69
2021/12/12 12:46:05;;;;;;;2.40;2.20;;;7.80;99.90;;;;;;4980980;28;20455;-68
2021/12/12 12:49:08;;;;;;;4.50;1.67;;;7.90;99.90;;;;;;4978038;28;20447;-68
2021/12/12 12:51:56;;;;;;;2.17;1.90;;;8.00;99.90;;;;;;4977257;28;20493;-69
2021/12/12 12:54:28;;;;;;;2.23;2.10;;;8.10;99.90;;;;;;4977185;28;20459;-69
2021/12/12 12:57:09;;;;;;;3.27;2.13;;;8.20;99.90;;;;;;4976247;28;20834;-69
2021/12/12 13:00:07;;;;;;;3.97;2.70;;;8.20;99.90;;;;;;4976075;28;20839;-69
2021/12/12 13:03:18;;;;;;;2.23;2.03;;;8.20;99.90;;;;;;4975679;28;20545;-69
2021/12/12 13:06:27;;;;;;;10.33;1.93;;;8.30;99.90;;;;;;4975550;28;20435;-69
2021/12/12 13:09:15;;;;;;;6.87;1.90;;;8.30;99.90;;;;;;4959468;28;20487;-70
2021/12/12 13:12:03;;;;;;;3.20;2.90;;;8.50;99.90;;;;;;4980162;28;20483;-69
2021/12/12 13:14:39;;;;;;;1.90;1.80;;;8.50;99.90;;;;;;4976654;28;20883;-71
2021/12/12 13:17:13;;;;;;;2.33;1.60;;;8.60;99.90;;;;;;4976161;28;20478;-71
2021/12/12 13:19:50;;;;;;;1.47;1.37;;;8.60;99.90;;;;;;4976208;28;20879;-71
2021/12/12 13:22:31;;;;;;;2.27;1.80;;;8.60;99.90;;;;;;4976463;28;20510;-71
2021/12/12 13:25:09;;;;;;;2.93;1.60;;;8.60;99.90;;;;;;4976922;28;20450;-71
2021/12/12 13:28:07;;;;;;;1.97;1.60;;;8.70;99.90;;;;;;4976905;28;20436;-71
2021/12/12 13:30:43;;;;;;;2.77;1.87;;;8.60;99.90;;;;;;4977573;28;20486;-70
2021/12/12 13:33:22;;;;;;;2.13;1.97;;;8.50;99.90;;;;;;4977906;28;20450;-71
2021/12/12 13:36:04;;;;;;;2.80;1.90;;;8.50;99.90;;;;;;4977818;28;20439;-71
2021/12/12 13:38:53;;;;;;;3.00;1.63;;;8.50;99.90;;;;;;4976804;28;20490;-71
2021/12/12 13:41:32;;;;;;;2.27;2.10;;;8.40;99.90;;;;;;4976353;28;20479;-70
2021/12/12 13:44:08;;;;;;;6.17;2.77;;;8.40;99.90;;;;;;4976387;28;20811;-70
2021/12/12 13:46:43;;;;;;;5.83;4.07;;;8.30;99.90;;;;;;4976636;28;20500;-70
2021/12/12 13:49:18;;;;;;;4.90;2.50;;;8.30;99.90;;;;;;4976502;28;20443;-70
2021/12/12 13:51:51;;;;;;;3.27;2.37;;;8.40;99.90;;;;;;4975834;28;20569;-71
2021/12/12 13:54:28;;;;;;;1.97;1.70;;;8.40;99.90;;;;;;4975698;28;20859;-70
2021/12/12 13:57:08;;;;;;;2.57;2.37;;;8.50;99.90;;;;;;4975446;28;20489;-70
2021/12/12 13:59:47;;;;;;;2.30;1.90;;;8.60;99.90;;;;;;4974832;28;20447;-71
2021/12/12 14:02:15;;;;;;;1.87;1.77;;;8.60;99.90;;;;;;4974474;28;20542;-71
2021/12/12 14:04:51;;;;;;;2.50;2.27;;;8.60;99.90;;;;;;4974500;28;20957;-70
2021/12/12 14:07:22;;;;;;;3.33;2.60;;;8.60;99.90;;;;;;4975640;28;20445;-71
2021/12/12 14:09:50;;;;;;;2.47;2.03;;;8.60;99.90;;;;;;4975594;28;20940;-71
2021/12/12 14:12:20;;;;;;;3.73;2.40;;;8.60;99.90;;;;;;4974583;28;20479;-71
2021/12/12 14:14:53;;;;;;;2.83;2.40;;;8.60;99.90;;;;;;4974270;28;20927;-71
2021/12/12 14:17:25;;;;;;;4.23;2.50;;;8.60;99.90;;;;;;4974849;28;20464;-72
2021/12/12 14:19:57;;;;;;;2.10;2.00;;;8.60;99.90;;;;;;4974803;28;20530;-71
2021/12/12 14:22:24;;;;;;;2.10;1.90;;;8.60;99.90;;;;;;4974716;28;20510;-70
2021/12/12 14:24:56;;;;;;;3.17;2.80;;;8.60;99.90;;;;;;4974155;28;20964;-71
2021/12/12 14:27:26;;;;;;;2.90;2.40;;;8.60;99.90;;;;;;4974725;28;20447;-71
2021/12/12 14:29:54;;;;;;;4.43;2.10;;;8.60;99.90;;;;;;4975014;28;20439;-71
2021/12/12 14:32:23;;;;;;;4.53;1.90;;;8.60;99.90;;;;;;4978130;28;20490;-70
2021/12/12 14:34:57;;;;;;;2.40;1.80;;;8.50;99.90;;;;;;4978382;28;20513;-70
2021/12/12 14:37:28;;;;;;;3.23;1.67;;;8.50;99.90;;;;;;4978143;28;20503;-71
2021/12/12 14:40:01;;;;;;;2.20;1.87;;;8.50;99.90;;;;;;4977919;28;20439;-71
2021/12/12 14:42:32;;;;;;;2.37;2.17;;;8.50;99.90;;;;;;4978293;28;20570;-72
2021/12/12 14:45:08;;;;;;;2.10;2.00;;;8.50;99.90;;;;;;4977756;28;20831;-73
2021/12/12 14:47:39;;;;;;;2.77;2.03;;;8.50;99.90;;;;;;4978244;28;20442;-71
2021/12/12 14:50:14;;;;;;;2.13;1.97;;;8.40;99.90;;;;;;4978009;28;20451;-71
2021/12/12 14:52:44;;;;;;;2.07;1.87;;;8.40;99.90;;;;;;4978478;28;20943;-71
2021/12/12 14:55:16;;;;;;;2.50;2.30;;;8.30;99.90;;;;;;4978682;28;20466;-71
2021/12/12 14:57:47;;;;;;;3.77;2.30;;;8.30;99.90;;;;;;4978231;28;20490;-72
2021/12/12 15:00:22;;;;;;;2.30;2.10;;;8.10;99.90;;;;;;4978207;28;20442;-72
2021/12/12 15:02:51;;;;;;;3.03;2.50;;;8.00;99.90;;;;;;4977578;28;20438;-70
2021/12/12 15:05:23;;;;;;;5.00;2.50;;;8.00;99.90;;;;;;4978347;28;20458;-71
2021/12/12 15:07:54;;;;;;;4.10;2.43;;;7.90;99.90;;;;;;4977967;28;20439;-71
2021/12/12 15:10:24;;;;;;;2.33;2.23;;;7.90;99.90;;;;;;4977846;28;20440;-71
2021/12/12 15:12:57;;;;;;;2.43;2.23;;;7.90;99.90;;;;;;4978592;28;20510;-71
2021/12/12 15:15:26;;;;;;;3.30;2.50;;;7.80;99.90;;;;;;4977787;28;20451;-72
2021/12/12 15:17:56;;;;;;;4.30;3.53;;;7.70;99.90;;;;;;4978224;28;20478;-72
2021/12/12 15:20:28;;;;;;;2.80;2.60;;;7.60;99.90;;;;;;4977673;28;20466;-72
2021/12/12 15:22:59;;;;;;;3.47;2.13;;;7.60;99.90;;;;;;4977829;28;20544;-72
2021/12/12 15:25:31;;;;;;;3.60;2.40;;;7.50;99.90;;;;;;4989548;28;20446;-72
2021/12/12 15:28:04;;;;;;;4.43;2.40;;;7.50;99.90;;;;;;4991406;28;20432;-72
2021/12/12 15:30:34;;;;;;;3.80;2.57;;;7.50;99.90;;;;;;4985825;28;20440;-72
2021/12/12 15:33:05;;;;;;;4.20;2.77;;;7.50;99.90;;;;;;4977678;28;20443;-72
2021/12/12 15:35:37;;;;;;;4.53;2.33;;;7.40;99.90;;;;;;4977368;28;20799;-72
2021/12/12 15:38:10;;;;;;;3.50;3.20;;;7.40;99.90;;;;;;4977304;28;20471;-72
2021/12/12 15:40:39;;;;;;;2.20;2.10;;;7.40;99.90;;;;;;4977213;28;20483;-76
2021/12/12 15:43:09;;;;;;;2.43;2.23;;;7.50;99.90;;;;;;4976509;28;20483;-70
2021/12/12 15:45:41;;;;;;;2.33;1.87;;;7.50;99.90;;;;;;4977455;28;20479;-71
2021/12/12 15:48:10;;;;;;;3.30;2.70;;;7.60;99.90;;;;;;4977025;28;20457;-71
2021/12/12 15:50:38;;;;;;;5.20;3.07;;;7.70;99.90;;;;;;4977272;28;20479;-72
2021/12/12 15:53:11;;;;;;;2.80;2.50;;;7.70;99.90;;;;;;4977138;28;20795;-71
2021/12/12 15:55:43;;;;;;;3.97;2.80;;;7.80;99.90;;;;;;4977134;28;20444;-71
2021/12/12 15:58:15;;;;;;;4.10;2.60;;;7.90;99.90;;;;;;4977043;28;20811;-71
2021/12/12 16:00:46;;;;;;;3.50;2.97;;;7.90;99.90;;;;;;4976579;28;20510;-71
2021/12/12 16:03:16;;;;;;;5.80;2.63;;;7.80;99.90;;;;;;4976623;28;20903;-71
2021/12/12 16:05:46;;;;;;;2.43;2.20;;;7.80;99.90;;;;;;4977454;28;20463;-71
2021/12/12 16:08:15;;;;;;;4.10;3.23;;;7.70;99.90;;;;;;4978639;28;20455;-71
2021/12/12 16:10:44;;;;;;;2.87;2.50;;;7.70;99.90;;;;;;4978001;28;20485;-71
2021/12/12 16:13:21;;;;;;;2.67;2.47;;;7.70;99.90;;;;;;4976857;28;20481;-71
2021/12/12 16:15:50;;;;;;;3.37;3.07;;;7.70;99.90;;;;;;4976613;28;20435;-71
2021/12/12 16:18:17;;;;;;;3.30;3.00;;;7.60;99.90;;;;;;4976456;28;20997;-71
2021/12/12 16:20:49;;;;;;;5.30;2.80;;;7.60;99.90;;;;;;4976566;28;20475;-71
2021/12/12 16:23:19;;;;;;;2.73;2.53;;;7.50;99.90;;;;;;4976420;28;20448;-71
2021/12/12 16:25:52;;;;;;;2.50;2.40;;;7.50;99.90;;;;;;4976211;28;20915;-72
2021/12/12 16:28:23;;;;;;;4.07;2.87;;;7.40;99.90;;;;;;4976389;28;20486;-71
2021/12/12 16:30:57;;;;;;;3.63;2.50;;;7.30;99.90;;;;;;4976979;28;20479;-70
2021/12/12 16:33:29;;;;;;;4.20;2.90;;;7.30;99.90;;;;;;4976535;28;20458;-70
2021/12/12 16:35:57;;;;;;;3.40;2.50;;;7.30;99.90;;;;;;4976534;28;20447;-70
2021/12/12 16:38:28;;;;;;;3.67;3.00;;;7.40;99.90;;;;;;4975900;28;20494;-70
2021/12/12 16:41:00;;;;;;;6.23;2.30;;;7.30;99.90;;;;;;4977604;28;20479;-72
2021/12/12 16:43:30;;;;;;;3.57;2.67;;;7.30;99.90;;;;;;4976564;28;20450;-71
2021/12/12 16:46:03;;;;;;;3.00;2.70;;;7.30;99.90;;;;;;4976212;28;20494;-70
2021/12/12 16:48:40;;;;;;;3.57;3.27;;;7.30;99.90;;;;;;4976183;28;20490;-70
2021/12/12 16:51:07;;;;;;;7.63;3.07;;;7.20;99.90;;;;;;4975718;28;21004;-70
2021/12/12 16:53:37;;;;;;;2.70;2.50;;;7.30;99.90;;;;;;4975980;28;20454;-70
2021/12/12 16:56:07;;;;;;;3.87;2.67;;;7.20;99.90;;;;;;4976268;28;20463;-69
2021/12/12 16:58:40;;;;;;;3.50;2.20;;;7.20;99.90;;;;;;4975608;28;20896;-71
2021/12/12 17:01:12;;;;;;;5.33;3.43;;;7.10;99.90;;;;;;4975587;28;20486;-70
2021/12/12 17:03:43;;;;;;;3.50;3.20;;;7.30;99.90;;;;;;4975801;28;20534;-71
2021/12/12 17:06:15;;;;;;;2.80;2.60;;;7.40;99.90;;;;;;4975705;28;20447;-70
2021/12/12 17:09:11;;;;;;;3.00;2.70;;;7.50;99.90;;;;;;4975960;28;20439;-70
2021/12/12 17:11:42;;;;;;;3.20;2.90;;;7.60;99.90;;;;;;4975300;28;21000;-70
2021/12/12 17:14:15;;;;;;;3.03;2.83;;;7.60;99.90;;;;;;4975504;28;20451;-70
2021/12/12 17:16:45;;;;;;;3.47;3.17;;;7.60;99.90;;;;;;4975754;28;20447;-70
2021/12/12 17:19:14;;;;;;;2.90;2.70;;;7.60;99.90;;;;;;4975417;28;20479;-70
2021/12/12 17:21:46;;;;;;;3.40;3.10;;;7.50;99.90;;;;;;4976809;28;20474;-70
2021/12/12 17:24:13;;;;;;;3.37;3.07;;;7.50;99.90;;;;;;4975965;28;20451;-70
2021/12/12 17:26:42;;;;;;;2.93;2.60;;;7.40;99.90;;;;;;4978931;28;20481;-70
2021/12/12 17:29:20;;;;;;;2.90;2.70;;;7.40;99.90;;;;;;4975417;28;20455;-70
2021/12/12 17:31:48;;;;;;;3.73;2.70;;;7.30;99.90;;;;;;4975203;28;20979;-70
2021/12/12 17:34:20;;;;;;;5.20;3.37;;;7.20;99.90;;;;;;4976726;28;20487;-70
2021/12/12 17:36:55;;;;;;;2.83;2.63;;;7.20;99.90;;;;;;4975039;28;20498;-71
2021/12/12 17:39:25;;;;;;;2.90;2.50;;;7.10;99.90;;;;;;4975237;28;20469;-70
2021/12/12 17:42:30;;;;;;;3.40;2.60;;;7.10;99.90;;;;;;4975255;28;20474;-71
2021/12/12 17:45:43;;;;;;;3.10;2.83;;;7.10;99.90;;;;;;4966060;28;20451;-71
2021/12/12 17:48:58;;;;;;;2.90;2.60;;;7.00;99.90;;;;;;4975136;28;20451;-71
2021/12/12 17:51:58;;;;;;;3.00;2.50;;;6.90;99.90;;;;;;4975273;28;20471;-71
2021/12/12 17:54:35;;;;;;;4.23;3.20;;;7.10;99.90;;;;;;4943260;28;20451;-70
2021/12/12 17:57:10;;;;;;;4.30;2.90;;;7.10;99.90;;;;;;4975086;28;20439;-70
2021/12/12 17:59:43;;;;;;;3.47;2.93;;;7.10;99.90;;;;;;4975043;28;20541;-69
2021/12/12 18:02:14;;;;;;;3.63;3.33;;;7.10;99.90;;;;;;4974589;28;20490;-70
2021/12/12 18:04:42;;;;;;;3.53;3.20;;;7.10;99.90;;;;;;4974850;28;20933;-70
2021/12/12 18:07:10;;;;;;;3.30;3.00;;;7.10;99.90;;;;;;4978580;28;20458;-70
2021/12/12 18:10:16;;;;;;;5.60;4.13;;;7.10;99.90;;;;;;4979167;28;20812;-70
2021/12/12 18:12:43;;;;;;;4.10;3.70;;;7.10;99.90;;;;;;4979220;28;20470;-70
2021/12/12 18:15:13;;;;;;;3.83;3.53;;;7.20;99.90;;;;;;4979263;28;20458;-71
2021/12/12 18:18:19;;;;;;;4.77;3.20;;;7.20;99.90;;;;;;4978684;28;20911;-71
2021/12/12 18:20:52;;;;;;;3.17;2.90;;;7.10;99.90;;;;;;4961730;28;20474;-70
2021/12/12 18:23:22;;;;;;;3.40;3.10;;;7.20;99.90;;;;;;4978666;28;20929;-69
2021/12/12 18:25:54;;;;;;;5.27;3.30;;;7.20;99.90;;;;;;4978826;28;20474;-70
2021/12/12 18:28:29;;;;;;;3.13;2.93;;;7.30;99.90;;;;;;4978912;28;20439;-70
2021/12/12 18:31:05;;;;;;;3.47;3.17;;;7.30;99.90;;;;;;4978928;28;20529;-71
2021/12/12 18:33:36;;;;;;;4.80;3.60;;;7.30;99.90;;;;;;4978667;28;20441;-70
2021/12/12 18:36:12;;;;;;;4.17;3.77;;;7.30;99.90;;;;;;4978795;28;20515;-70